Portada
METAR-TAF:

METAR-TAF

Aeroports :

Kuala Lumpur, Malàisia

latitud: 02-44N, longitud: 101-42E, altitud: 21 m

Observació

L'informe es va fer fa 11 minuts, a les 03:30 UTC
Vent 4 kt amb direcció variable
Temperatura 31°C
Humitat 63%
Pressió 1010 hPa
Visibilitat 10 km o més
Escasses núvols a una alçada de 1800 ft

METAR: WMKK 210330Z VRB04KT 9999 FEW018 31/23 Q1010 NOSIG

Hora: 11:41 (03:41 UTC)

Pronòstic

L'informe es va fer fa 4 hores i 41 minuts, a les 23:00 UTC
Pronòstic vàlid del 21 a les 00 UTC al 22 a les 06 UTC
Vent 5 kt del Est/Nord-Est
Visibilitat 10 km o més
Escasses núvols a una alçada de 1700 ft, Cumulonimbus.
Temporalment
l' 21 a les 08 UTC al 21 a les 12 UTC
Vent 10 kt del Sud-Oest
Visibilitat: 3000 m
Escasses núvols a una alçada de 1000 ft
Escasses núvols a una alçada de 1600 ft, Cumulonimbus.
Núvols disperses a una alçada de 1800 ft
tempesta, pluja

TAF: WMKK 202300Z 2100/2206 06005KT 9999 FEW017CB TEMPO 2108/2112 22010KT 3000 TSRA FEW010 FEW016CB SCT018

Observacions i pronòstics meteorològics de més de 4000 aeroports (METAR i TAF).

Les estacions disponibles són els punts grocs i vermells al mapa.

Posi el ratolí al punt desitjat per veure el nom de l'estació.

Feu clic per veure les observacions i els pronòstics meteorològics.

Per canviar el mapa: feu clic els botons verds amb una creu de color negre per apropar; al botó verd amb un guió per allunyar la imatge; o en les fletxes verdes per a mapes adjacents.


METAR-TAF: